sensor_id;sensor_type;location;lat;lon;timestamp;P1;durP1;ratioP1;P2;durP2;ratioP2
11445;SDS011;5779;64.178;15.432;2023-06-05T00:01:10;0.27;;;0.27;;
11445;SDS011;5779;64.178;15.432;2023-06-05T00:03:57;0.53;;;0.53;;
11445;SDS011;5779;64.178;15.432;2023-06-05T00:06:44;0.90;;;0.90;;
11445;SDS011;5779;64.178;15.432;2023-06-05T00:09:32;0.77;;;0.73;;
11445;SDS011;5779;64.178;15.432;2023-06-05T00:12:19;0.57;;;0.57;;
11445;SDS011;5779;64.178;15.432;2023-06-05T00:15:06;0.87;;;0.87;;
11445;SDS011;5779;64.178;15.432;2023-06-05T00:17:54;1.10;;;0.57;;
11445;SDS011;5779;64.178;15.432;2023-06-05T00:20:41;0.50;;;0.50;;
11445;SDS011;5779;64.178;15.432;2023-06-05T00:23:28;1.53;;;0.73;;
11445;SDS011;5779;64.178;15.432;2023-06-05T00:26:16;1.17;;;0.70;;
11445;SDS011;5779;64.178;15.432;2023-06-05T00:29:03;0.50;;;0.50;;
11445;SDS011;5779;64.178;15.432;2023-06-05T00:31:50;0.50;;;0.50;;
11445;SDS011;5779;64.178;15.432;2023-06-05T00:34:38;0.73;;;0.73;;
11445;SDS011;5779;64.178;15.432;2023-06-05T00:37:25;0.30;;;0.30;;
11445;SDS011;5779;64.178;15.432;2023-06-05T00:40:12;0.40;;;0.40;;
11445;SDS011;5779;64.178;15.432;2023-06-05T00:43:01;0.63;;;0.63;;
11445;SDS011;5779;64.178;15.432;2023-06-05T00:45:50;0.73;;;0.57;;
11445;SDS011;5779;64.178;15.432;2023-06-05T00:48:42;0.43;;;0.43;;
11445;SDS011;5779;64.178;15.432;2023-06-05T00:51:31;1.10;;;0.60;;
11445;SDS011;5779;64.178;15.432;2023-06-05T00:54:18;0.43;;;0.43;;
11445;SDS011;5779;64.178;15.432;2023-06-05T00:57:05;0.37;;;0.37;;
11445;SDS011;5779;64.178;15.432;2023-06-05T00:59:54;0.30;;;0.30;;
11445;SDS011;5779;64.178;15.432;2023-06-05T01:02:40;0.30;;;0.30;;
11445;SDS011;5779;64.178;15.432;2023-06-05T01:05:27;0.30;;;0.30;;
11445;SDS011;5779;64.178;15.432;2023-06-05T01:08:14;0.50;;;0.50;;
11445;SDS011;5779;64.178;15.432;2023-06-05T01:11:08;0.57;;;0.50;;
11445;SDS011;5779;64.178;15.432;2023-06-05T01:14:02;0.33;;;0.33;;
11445;SDS011;5779;64.178;15.432;2023-06-05T01:16:55;0.40;;;0.40;;
11445;SDS011;5779;64.178;15.432;2023-06-05T01:19:44;4.43;;;0.40;;
11445;SDS011;5779;64.178;15.432;2023-06-05T01:22:34;0.80;;;0.50;;
11445;SDS011;5779;64.178;15.432;2023-06-05T01:25:23;0.60;;;0.53;;
11445;SDS011;5779;64.178;15.432;2023-06-05T01:28:12;0.30;;;0.30;;
11445;SDS011;5779;64.178;15.432;2023-06-05T01:31:03;0.47;;;0.47;;
11445;SDS011;5779;64.178;15.432;2023-06-05T01:34:00;0.40;;;0.40;;
11445;SDS011;5779;64.178;15.432;2023-06-05T01:36:50;0.30;;;0.30;;
11445;SDS011;5779;64.178;15.432;2023-06-05T01:39:38;0.40;;;0.40;;
11445;SDS011;5779;64.178;15.432;2023-06-05T01:42:27;0.40;;;0.40;;
11445;SDS011;5779;64.178;15.432;2023-06-05T01:45:15;1.40;;;0.30;;
11445;SDS011;5779;64.178;15.432;2023-06-05T01:48:02;0.27;;;0.27;;
11445;SDS011;5779;64.178;15.432;2023-06-05T01:50:49;0.53;;;0.40;;
11445;SDS011;5779;64.178;15.432;2023-06-05T01:53:41;0.53;;;0.53;;
11445;SDS011;5779;64.178;15.432;2023-06-05T01:56:28;0.20;;;0.20;;
11445;SDS011;5779;64.178;15.432;2023-06-05T01:59:18;0.30;;;0.30;;
11445;SDS011;5779;64.178;15.432;2023-06-05T02:02:06;0.20;;;0.20;;
11445;SDS011;5779;64.178;15.432;2023-06-05T02:04:53;0.20;;;0.20;;
11445;SDS011;5779;64.178;15.432;2023-06-05T02:07:46;0.20;;;0.20;;
11445;SDS011;5779;64.178;15.432;2023-06-05T02:10:43;0.60;;;0.30;;
11445;SDS011;5779;64.178;15.432;2023-06-05T02:13:36;0.20;;;0.20;;
11445;SDS011;5779;64.178;15.432;2023-06-05T02:16:31;0.20;;;0.20;;
11445;SDS011;5779;64.178;15.432;2023-06-05T02:19:26;0.20;;;0.20;;
11445;SDS011;5779;64.178;15.432;2023-06-05T02:22:17;0.27;;;0.27;;
11445;SDS011;5779;64.178;15.432;2023-06-05T02:25:10;0.57;;;0.50;;
11445;SDS011;5779;64.178;15.432;2023-06-05T02:28:03;0.20;;;0.20;;
11445;SDS011;5779;64.178;15.432;2023-06-05T02:30:56;0.27;;;0.27;;
11445;SDS011;5779;64.178;15.432;2023-06-05T02:33:51;0.30;;;0.30;;
11445;SDS011;5779;64.178;15.432;2023-06-05T02:36:45;0.23;;;0.23;;
11445;SDS011;5779;64.178;15.432;2023-06-05T02:39:38;0.27;;;0.27;;
11445;SDS011;5779;64.178;15.432;2023-06-05T02:42:28;0.20;;;0.20;;
11445;SDS011;5779;64.178;15.432;2023-06-05T02:45:15;0.40;;;0.40;;
11445;SDS011;5779;64.178;15.432;2023-06-05T02:48:02;0.20;;;0.20;;
11445;SDS011;5779;64.178;15.432;2023-06-05T02:50:50;0.30;;;0.30;;
11445;SDS011;5779;64.178;15.432;2023-06-05T02:53:37;0.43;;;0.43;;
11445;SDS011;5779;64.178;15.432;2023-06-05T02:56:24;0.20;;;0.20;;
11445;SDS011;5779;64.178;15.432;2023-06-05T02:59:11;0.40;;;0.40;;
11445;SDS011;5779;64.178;15.432;2023-06-05T03:01:58;0.30;;;0.30;;
11445;SDS011;5779;64.178;15.432;2023-06-05T03:04:45;0.23;;;0.23;;
11445;SDS011;5779;64.178;15.432;2023-06-05T03:07:39;0.20;;;0.20;;
11445;SDS011;5779;64.178;15.432;2023-06-05T03:10:26;0.27;;;0.27;;
11445;SDS011;5779;64.178;15.432;2023-06-05T03:13:13;0.23;;;0.23;;
11445;SDS011;5779;64.178;15.432;2023-06-05T03:16:00;0.20;;;0.20;;
11445;SDS011;5779;64.178;15.432;2023-06-05T03:18:47;0.30;;;0.30;;
11445;SDS011;5779;64.178;15.432;2023-06-05T03:21:34;0.37;;;0.37;;
11445;SDS011;5779;64.178;15.432;2023-06-05T03:24:23;0.30;;;0.30;;
11445;SDS011;5779;64.178;15.432;2023-06-05T03:27:12;0.20;;;0.20;;
11445;SDS011;5779;64.178;15.432;2023-06-05T03:29:58;0.30;;;0.30;;
11445;SDS011;5779;64.178;15.432;2023-06-05T03:32:46;0.20;;;0.20;;
11445;SDS011;5779;64.178;15.432;2023-06-05T03:35:33;0.27;;;0.27;;
11445;SDS011;5779;64.178;15.432;2023-06-05T03:38:20;0.20;;;0.20;;
11445;SDS011;5779;64.178;15.432;2023-06-05T03:41:08;0.30;;;0.30;;
11445;SDS011;5779;64.178;15.432;2023-06-05T03:43:55;0.30;;;0.30;;
11445;SDS011;5779;64.178;15.432;2023-06-05T03:46:43;0.30;;;0.30;;
11445;SDS011;5779;64.178;15.432;2023-06-05T03:49:31;0.20;;;0.20;;
11445;SDS011;5779;64.178;15.432;2023-06-05T03:52:17;0.30;;;0.30;;
11445;SDS011;5779;64.178;15.432;2023-06-05T03:55:08;0.53;;;0.30;;
11445;SDS011;5779;64.178;15.432;2023-06-05T03:57:56;0.20;;;0.20;;
11445;SDS011;5779;64.178;15.432;2023-06-05T04:00:46;0.30;;;0.30;;
11445;SDS011;5779;64.178;15.432;2023-06-05T04:03:35;0.30;;;0.30;;
11445;SDS011;5779;64.178;15.432;2023-06-05T04:06:22;0.30;;;0.30;;
11445;SDS011;5779;64.178;15.432;2023-06-05T04:09:08;0.20;;;0.20;;
11445;SDS011;5779;64.178;15.432;2023-06-05T04:11:56;0.20;;;0.20;;
11445;SDS011;5779;64.178;15.432;2023-06-05T04:14:45;0.47;;;0.47;;
11445;SDS011;5779;64.178;15.432;2023-06-05T04:17:31;0.20;;;0.20;;
11445;SDS011;5779;64.178;15.432;2023-06-05T04:20:18;0.20;;;0.20;;
11445;SDS011;5779;64.178;15.432;2023-06-05T04:23:05;0.20;;;0.20;;
11445;SDS011;5779;64.178;15.432;2023-06-05T04:25:52;0.20;;;0.20;;
11445;SDS011;5779;64.178;15.432;2023-06-05T04:28:39;0.20;;;0.20;;
11445;SDS011;5779;64.178;15.432;2023-06-05T04:31:28;0.20;;;0.20;;
11445;SDS011;5779;64.178;15.432;2023-06-05T04:34:15;0.30;;;0.30;;
11445;SDS011;5779;64.178;15.432;2023-06-05T04:37:03;0.20;;;0.20;;
11445;SDS011;5779;64.178;15.432;2023-06-05T04:39:49;0.20;;;0.20;;
11445;SDS011;5779;64.178;15.432;2023-06-05T04:42:36;0.20;;;0.20;;
11445;SDS011;5779;64.178;15.432;2023-06-05T04:45:23;0.20;;;0.20;;
11445;SDS011;5779;64.178;15.432;2023-06-05T04:48:11;0.20;;;0.20;;
11445;SDS011;5779;64.178;15.432;2023-06-05T04:50:58;0.20;;;0.20;;
11445;SDS011;5779;64.178;15.432;2023-06-05T04:53:45;0.20;;;0.20;;
11445;SDS011;5779;64.178;15.432;2023-06-05T04:56:35;0.20;;;0.20;;
11445;SDS011;5779;64.178;15.432;2023-06-05T04:59:23;0.20;;;0.20;;
11445;SDS011;5779;64.178;15.432;2023-06-05T05:02:10;0.20;;;0.20;;
11445;SDS011;5779;64.178;15.432;2023-06-05T05:04:58;0.20;;;0.20;;
11445;SDS011;5779;64.178;15.432;2023-06-05T05:07:45;0.20;;;0.20;;
11445;SDS011;5779;64.178;15.432;2023-06-05T05:10:32;0.20;;;0.20;;
11445;SDS011;5779;64.178;15.432;2023-06-05T05:13:19;0.20;;;0.20;;
11445;SDS011;5779;64.178;15.432;2023-06-05T05:16:05;0.20;;;0.20;;
11445;SDS011;5779;64.178;15.432;2023-06-05T05:18:53;0.20;;;0.20;;
11445;SDS011;5779;64.178;15.432;2023-06-05T05:21:41;0.20;;;0.20;;
11445;SDS011;5779;64.178;15.432;2023-06-05T05:24:29;0.20;;;0.20;;
11445;SDS011;5779;64.178;15.432;2023-06-05T05:27:16;0.30;;;0.30;;
11445;SDS011;5779;64.178;15.432;2023-06-05T05:30:03;0.20;;;0.20;;
11445;SDS011;5779;64.178;15.432;2023-06-05T05:32:50;0.33;;;0.33;;
11445;SDS011;5779;64.178;15.432;2023-06-05T05:35:37;0.20;;;0.20;;
11445;SDS011;5779;64.178;15.432;2023-06-05T05:38:26;0.20;;;0.20;;
11445;SDS011;5779;64.178;15.432;2023-06-05T05:41:12;0.20;;;0.20;;
11445;SDS011;5779;64.178;15.432;2023-06-05T05:44:00;0.30;;;0.30;;
11445;SDS011;5779;64.178;15.432;2023-06-05T05:46:46;1.90;;;0.30;;
11445;SDS011;5779;64.178;15.432;2023-06-05T05:49:34;0.30;;;0.30;;
11445;SDS011;5779;64.178;15.432;2023-06-05T05:52:21;2.47;;;0.30;;
11445;SDS011;5779;64.178;15.432;2023-06-05T05:55:09;0.20;;;0.20;;
11445;SDS011;5779;64.178;15.432;2023-06-05T05:57:56;0.20;;;0.20;;
11445;SDS011;5779;64.178;15.432;2023-06-05T06:00:43;0.53;;;0.43;;
11445;SDS011;5779;64.178;15.432;2023-06-05T06:03:30;0.20;;;0.20;;
11445;SDS011;5779;64.178;15.432;2023-06-05T06:06:18;0.50;;;0.50;;
11445;SDS011;5779;64.178;15.432;2023-06-05T06:09:04;1.60;;;0.43;;
11445;SDS011;5779;64.178;15.432;2023-06-05T06:11:54;1.50;;;0.60;;
11445;SDS011;5779;64.178;15.432;2023-06-05T06:14:41;1.37;;;0.60;;
11445;SDS011;5779;64.178;15.432;2023-06-05T06:17:28;0.37;;;0.37;;
11445;SDS011;5779;64.178;15.432;2023-06-05T06:20:14;1.60;;;0.60;;
11445;SDS011;5779;64.178;15.432;2023-06-05T06:23:01;0.20;;;0.20;;
11445;SDS011;5779;64.178;15.432;2023-06-05T06:25:49;1.60;;;0.53;;
11445;SDS011;5779;64.178;15.432;2023-06-05T06:28:37;0.60;;;0.40;;
11445;SDS011;5779;64.178;15.432;2023-06-05T06:31:24;0.83;;;0.63;;
11445;SDS011;5779;64.178;15.432;2023-06-05T06:34:11;2.23;;;0.93;;
11445;SDS011;5779;64.178;15.432;2023-06-05T06:36:58;0.20;;;0.20;;
11445;SDS011;5779;64.178;15.432;2023-06-05T06:39:45;0.30;;;0.30;;
11445;SDS011;5779;64.178;15.432;2023-06-05T06:42:32;0.50;;;0.50;;
11445;SDS011;5779;64.178;15.432;2023-06-05T06:45:20;2.60;;;0.90;;
11445;SDS011;5779;64.178;15.432;2023-06-05T06:48:07;2.17;;;0.90;;
11445;SDS011;5779;64.178;15.432;2023-06-05T06:50:54;2.47;;;0.80;;
11445;SDS011;5779;64.178;15.432;2023-06-05T06:53:41;4.97;;;1.27;;
11445;SDS011;5779;64.178;15.432;2023-06-05T06:56:28;0.90;;;0.70;;
11445;SDS011;5779;64.178;15.432;2023-06-05T06:59:15;3.03;;;0.80;;
11445;SDS011;5779;64.178;15.432;2023-06-05T07:02:09;0.50;;;0.50;;
11445;SDS011;5779;64.178;15.432;2023-06-05T07:04:57;0.80;;;0.80;;
11445;SDS011;5779;64.178;15.432;2023-06-05T07:07:45;3.43;;;1.07;;
11445;SDS011;5779;64.178;15.432;2023-06-05T07:10:32;2.80;;;1.03;;
11445;SDS011;5779;64.178;15.432;2023-06-05T07:13:19;0.73;;;0.43;;
11445;SDS011;5779;64.178;15.432;2023-06-05T07:16:06;0.70;;;0.60;;
11445;SDS011;5779;64.178;15.432;2023-06-05T07:18:54;0.60;;;0.60;;
11445;SDS011;5779;64.178;15.432;2023-06-05T07:21:41;0.83;;;0.70;;
11445;SDS011;5779;64.178;15.432;2023-06-05T07:24:28;0.70;;;0.67;;
11445;SDS011;5779;64.178;15.432;2023-06-05T07:27:15;0.60;;;0.57;;
11445;SDS011;5779;64.178;15.432;2023-06-05T07:30:03;0.60;;;0.60;;
11445;SDS011;5779;64.178;15.432;2023-06-05T07:32:50;0.63;;;0.63;;
11445;SDS011;5779;64.178;15.432;2023-06-05T07:35:39;0.83;;;0.67;;
11445;SDS011;5779;64.178;15.432;2023-06-05T07:38:25;1.87;;;1.00;;
11445;SDS011;5779;64.178;15.432;2023-06-05T07:41:14;2.73;;;1.37;;
11445;SDS011;5779;64.178;15.432;2023-06-05T07:44:01;1.47;;;0.83;;
11445;SDS011;5779;64.178;15.432;2023-06-05T07:46:48;4.57;;;1.30;;
11445;SDS011;5779;64.178;15.432;2023-06-05T07:49:35;4.47;;;1.37;;
11445;SDS011;5779;64.178;15.432;2023-06-05T07:52:24;2.23;;;1.10;;
11445;SDS011;5779;64.178;15.432;2023-06-05T07:55:10;0.87;;;0.83;;
11445;SDS011;5779;64.178;15.432;2023-06-05T07:57:57;5.13;;;1.73;;
11445;SDS011;5779;64.178;15.432;2023-06-05T08:00:45;9.37;;;1.10;;
11445;SDS011;5779;64.178;15.432;2023-06-05T08:03:33;3.70;;;1.30;;
11445;SDS011;5779;64.178;15.432;2023-06-05T08:06:20;2.30;;;0.83;;
11445;SDS011;5779;64.178;15.432;2023-06-05T08:09:09;0.87;;;0.80;;
11445;SDS011;5779;64.178;15.432;2023-06-05T08:11:56;1.60;;;0.67;;
11445;SDS011;5779;64.178;15.432;2023-06-05T08:14:43;1.47;;;0.90;;
11445;SDS011;5779;64.178;15.432;2023-06-05T08:17:30;0.60;;;0.60;;
11445;SDS011;5779;64.178;15.432;2023-06-05T08:20:17;2.47;;;0.97;;
11445;SDS011;5779;64.178;15.432;2023-06-05T08:23:04;1.10;;;0.97;;
11445;SDS011;5779;64.178;15.432;2023-06-05T08:25:53;8.00;;;1.27;;
11445;SDS011;5779;64.178;15.432;2023-06-05T08:28:40;3.10;;;1.20;;
11445;SDS011;5779;64.178;15.432;2023-06-05T08:31:27;0.97;;;0.90;;
11445;SDS011;5779;64.178;15.432;2023-06-05T08:34:14;1.50;;;1.00;;
11445;SDS011;5779;64.178;15.432;2023-06-05T08:37:01;3.03;;;1.00;;
11445;SDS011;5779;64.178;15.432;2023-06-05T08:39:48;2.57;;;1.33;;
11445;SDS011;5779;64.178;15.432;2023-06-05T08:42:36;2.07;;;1.07;;
11445;SDS011;5779;64.178;15.432;2023-06-05T08:45:24;1.17;;;1.00;;
11445;SDS011;5779;64.178;15.432;2023-06-05T08:48:10;2.03;;;0.63;;
11445;SDS011;5779;64.178;15.432;2023-06-05T08:51:02;2.57;;;0.83;;
11445;SDS011;5779;64.178;15.432;2023-06-05T08:53:51;0.80;;;0.80;;
11445;SDS011;5779;64.178;15.432;2023-06-05T08:56:42;0.93;;;0.70;;
11445;SDS011;5779;64.178;15.432;2023-06-05T08:59:30;0.97;;;0.43;;
11445;SDS011;5779;64.178;15.432;2023-06-05T09:02:18;1.13;;;0.63;;
11445;SDS011;5779;64.178;15.432;2023-06-05T09:05:05;0.60;;;0.60;;
11445;SDS011;5779;64.178;15.432;2023-06-05T09:07:52;0.90;;;0.57;;
11445;SDS011;5779;64.178;15.432;2023-06-05T09:10:39;0.37;;;0.37;;
11445;SDS011;5779;64.178;15.432;2023-06-05T09:13:27;2.30;;;0.90;;
11445;SDS011;5779;64.178;15.432;2023-06-05T09:16:36;1.90;;;0.97;;
11445;SDS011;5779;64.178;15.432;2023-06-05T09:19:25;3.67;;;1.10;;
11445;SDS011;5779;64.178;15.432;2023-06-05T09:22:31;0.60;;;0.60;;
11445;SDS011;5779;64.178;15.432;2023-06-05T09:25:19;1.90;;;0.70;;
11445;SDS011;5779;64.178;15.432;2023-06-05T09:28:06;4.27;;;1.17;;
11445;SDS011;5779;64.178;15.432;2023-06-05T09:30:57;0.97;;;0.93;;
11445;SDS011;5779;64.178;15.432;2023-06-05T09:33:53;1.07;;;0.70;;
11445;SDS011;5779;64.178;15.432;2023-06-05T09:36:44;2.63;;;0.87;;
11445;SDS011;5779;64.178;15.432;2023-06-05T09:39:33;3.50;;;0.97;;
11445;SDS011;5779;64.178;15.432;2023-06-05T09:42:30;0.43;;;0.43;;
11445;SDS011;5779;64.178;15.432;2023-06-05T09:45:18;2.63;;;0.83;;
11445;SDS011;5779;64.178;15.432;2023-06-05T09:48:12;1.73;;;1.00;;
11445;SDS011;5779;64.178;15.432;2023-06-05T09:51:11;2.83;;;1.30;;
11445;SDS011;5779;64.178;15.432;2023-06-05T09:53:59;9.47;;;1.50;;
11445;SDS011;5779;64.178;15.432;2023-06-05T09:56:48;1.47;;;0.97;;
11445;SDS011;5779;64.178;15.432;2023-06-05T09:59:35;1.80;;;0.60;;
11445;SDS011;5779;64.178;15.432;2023-06-05T10:02:31;1.23;;;0.80;;
11445;SDS011;5779;64.178;15.432;2023-06-05T10:05:19;4.27;;;1.47;;
11445;SDS011;5779;64.178;15.432;2023-06-05T10:08:08;2.77;;;1.13;;
11445;SDS011;5779;64.178;15.432;2023-06-05T10:10:56;4.00;;;1.10;;
11445;SDS011;5779;64.178;15.432;2023-06-05T10:13:44;2.17;;;1.23;;
11445;SDS011;5779;64.178;15.432;2023-06-05T10:16:32;1.80;;;1.30;;
11445;SDS011;5779;64.178;15.432;2023-06-05T10:19:20;2.27;;;0.80;;
11445;SDS011;5779;64.178;15.432;2023-06-05T10:22:09;0.67;;;0.47;;
11445;SDS011;5779;64.178;15.432;2023-06-05T10:24:58;1.47;;;1.10;;
11445;SDS011;5779;64.178;15.432;2023-06-05T10:27:54;0.87;;;0.87;;
11445;SDS011;5779;64.178;15.432;2023-06-05T10:31:08;0.80;;;0.67;;
11445;SDS011;5779;64.178;15.432;2023-06-05T10:34:13;6.20;;;0.67;;
11445;SDS011;5779;64.178;15.432;2023-06-05T10:37:30;3.93;;;1.27;;
11445;SDS011;5779;64.178;15.432;2023-06-05T10:40:26;1.97;;;1.10;;
11445;SDS011;5779;64.178;15.432;2023-06-05T10:43:26;0.53;;;0.53;;
11445;SDS011;5779;64.178;15.432;2023-06-05T10:46:31;2.30;;;1.53;;
11445;SDS011;5779;64.178;15.432;2023-06-05T10:49:19;2.87;;;1.37;;
11445;SDS011;5779;64.178;15.432;2023-06-05T10:52:05;1.47;;;1.20;;
11445;SDS011;5779;64.178;15.432;2023-06-05T10:55:22;1.90;;;0.80;;
11445;SDS011;5779;64.178;15.432;2023-06-05T10:58:10;2.33;;;0.87;;
11445;SDS011;5779;64.178;15.432;2023-06-05T11:01:15;4.43;;;1.20;;
11445;SDS011;5779;64.178;15.432;2023-06-05T11:04:03;2.77;;;1.10;;
11445;SDS011;5779;64.178;15.432;2023-06-05T11:10:04;3.53;;;1.03;;
11445;SDS011;5779;64.178;15.432;2023-06-05T11:13:00;1.13;;;0.80;;
11445;SDS011;5779;64.178;15.432;2023-06-05T11:15:50;2.43;;;0.93;;
11445;SDS011;5779;64.178;15.432;2023-06-05T11:18:38;0.50;;;0.50;;
11445;SDS011;5779;64.178;15.432;2023-06-05T11:21:32;1.23;;;0.60;;
11445;SDS011;5779;64.178;15.432;2023-06-05T11:28:06;1.60;;;0.63;;
11445;SDS011;5779;64.178;15.432;2023-06-05T11:30:55;1.30;;;0.90;;
11445;SDS011;5779;64.178;15.432;2023-06-05T11:33:41;0.20;;;0.20;;
11445;SDS011;5779;64.178;15.432;2023-06-05T11:36:28;0.87;;;0.77;;
11445;SDS011;5779;64.178;15.432;2023-06-05T11:39:17;0.50;;;0.40;;
11445;SDS011;5779;64.178;15.432;2023-06-05T11:42:05;0.67;;;0.67;;
11445;SDS011;5779;64.178;15.432;2023-06-05T11:44:53;1.03;;;0.60;;
11445;SDS011;5779;64.178;15.432;2023-06-05T11:47:41;0.20;;;0.20;;
11445;SDS011;5779;64.178;15.432;2023-06-05T11:50:28;1.17;;;0.60;;
11445;SDS011;5779;64.178;15.432;2023-06-05T11:53:15;0.50;;;0.50;;
11445;SDS011;5779;64.178;15.432;2023-06-05T11:56:06;0.70;;;0.33;;
11445;SDS011;5779;64.178;15.432;2023-06-05T11:59:00;3.40;;;0.50;;
11445;SDS011;5779;64.178;15.432;2023-06-05T12:01:47;1.37;;;0.70;;
11445;SDS011;5779;64.178;15.432;2023-06-05T12:04:36;1.77;;;0.80;;
11445;SDS011;5779;64.178;15.432;2023-06-05T12:07:29;0.47;;;0.43;;
11445;SDS011;5779;64.178;15.432;2023-06-05T12:10:32;0.33;;;0.33;;
11445;SDS011;5779;64.178;15.432;2023-06-05T12:13:19;0.40;;;0.40;;
11445;SDS011;5779;64.178;15.432;2023-06-05T12:16:06;0.63;;;0.50;;
11445;SDS011;5779;64.178;15.432;2023-06-05T12:18:53;0.63;;;0.63;;
11445;SDS011;5779;64.178;15.432;2023-06-05T12:21:43;0.50;;;0.40;;
11445;SDS011;5779;64.178;15.432;2023-06-05T12:24:31;1.93;;;0.80;;
11445;SDS011;5779;64.178;15.432;2023-06-05T12:27:29;0.87;;;0.83;;
11445;SDS011;5779;64.178;15.432;2023-06-05T12:30:18;0.67;;;0.50;;
11445;SDS011;5779;64.178;15.432;2023-06-05T12:33:05;0.80;;;0.80;;
11445;SDS011;5779;64.178;15.432;2023-06-05T12:36:02;1.57;;;0.60;;
11445;SDS011;5779;64.178;15.432;2023-06-05T12:38:51;0.97;;;0.73;;
11445;SDS011;5779;64.178;15.432;2023-06-05T12:41:38;0.73;;;0.70;;
11445;SDS011;5779;64.178;15.432;2023-06-05T12:44:25;3.93;;;0.87;;
11445;SDS011;5779;64.178;15.432;2023-06-05T12:47:12;4.70;;;1.37;;
11445;SDS011;5779;64.178;15.432;2023-06-05T12:49:59;0.60;;;0.60;;
11445;SDS011;5779;64.178;15.432;2023-06-05T12:52:46;0.77;;;0.60;;
11445;SDS011;5779;64.178;15.432;2023-06-05T12:55:34;6.23;;;0.63;;
11445;SDS011;5779;64.178;15.432;2023-06-05T12:58:21;1.97;;;0.70;;
11445;SDS011;5779;64.178;15.432;2023-06-05T13:01:08;0.77;;;0.67;;
11445;SDS011;5779;64.178;15.432;2023-06-05T13:03:55;3.00;;;0.77;;
11445;SDS011;5779;64.178;15.432;2023-06-05T13:06:42;3.77;;;0.50;;
11445;SDS011;5779;64.178;15.432;2023-06-05T13:09:29;0.57;;;0.57;;
11445;SDS011;5779;64.178;15.432;2023-06-05T13:12:17;0.63;;;0.60;;
11445;SDS011;5779;64.178;15.432;2023-06-05T13:15:04;5.00;;;0.70;;
11445;SDS011;5779;64.178;15.432;2023-06-05T13:17:51;1.60;;;0.90;;
11445;SDS011;5779;64.178;15.432;2023-06-05T13:20:38;0.57;;;0.50;;
11445;SDS011;5779;64.178;15.432;2023-06-05T13:23:25;1.27;;;0.83;;
11445;SDS011;5779;64.178;15.432;2023-06-05T13:26:12;0.80;;;0.80;;
11445;SDS011;5779;64.178;15.432;2023-06-05T13:29:01;2.90;;;1.10;;
11445;SDS011;5779;64.178;15.432;2023-06-05T13:31:48;0.97;;;0.50;;
11445;SDS011;5779;64.178;15.432;2023-06-05T13:34:34;1.13;;;0.60;;
11445;SDS011;5779;64.178;15.432;2023-06-05T13:37:22;18.93;;;0.90;;
11445;SDS011;5779;64.178;15.432;2023-06-05T13:40:09;0.97;;;0.73;;
11445;SDS011;5779;64.178;15.432;2023-06-05T13:42:57;1.63;;;0.80;;
11445;SDS011;5779;64.178;15.432;2023-06-05T13:45:46;1.23;;;0.77;;
11445;SDS011;5779;64.178;15.432;2023-06-05T13:48:33;1.83;;;0.67;;
11445;SDS011;5779;64.178;15.432;2023-06-05T13:51:20;0.67;;;0.67;;
11445;SDS011;5779;64.178;15.432;2023-06-05T13:54:06;1.53;;;0.70;;
11445;SDS011;5779;64.178;15.432;2023-06-05T13:56:53;0.60;;;0.60;;
11445;SDS011;5779;64.178;15.432;2023-06-05T13:59:40;0.40;;;0.40;;
11445;SDS011;5779;64.178;15.432;2023-06-05T14:02:28;0.87;;;0.43;;
11445;SDS011;5779;64.178;15.432;2023-06-05T14:05:17;0.77;;;0.77;;
11445;SDS011;5779;64.178;15.432;2023-06-05T14:08:10;0.83;;;0.60;;
11445;SDS011;5779;64.178;15.432;2023-06-05T14:10:59;0.60;;;0.60;;
11445;SDS011;5779;64.178;15.432;2023-06-05T14:13:53;1.10;;;0.80;;
11445;SDS011;5779;64.178;15.432;2023-06-05T14:16:46;0.97;;;0.40;;
11445;SDS011;5779;64.178;15.432;2023-06-05T14:19:34;0.60;;;0.57;;
11445;SDS011;5779;64.178;15.432;2023-06-05T14:22:26;0.40;;;0.40;;
11445;SDS011;5779;64.178;15.432;2023-06-05T14:25:20;0.40;;;0.40;;
11445;SDS011;5779;64.178;15.432;2023-06-05T14:28:13;3.97;;;0.87;;
11445;SDS011;5779;64.178;15.432;2023-06-05T14:31:06;0.60;;;0.60;;
11445;SDS011;5779;64.178;15.432;2023-06-05T14:33:55;0.60;;;0.60;;
11445;SDS011;5779;64.178;15.432;2023-06-05T14:36:49;0.60;;;0.60;;
11445;SDS011;5779;64.178;15.432;2023-06-05T14:39:41;0.80;;;0.80;;
11445;SDS011;5779;64.178;15.432;2023-06-05T14:42:29;1.43;;;0.43;;
11445;SDS011;5779;64.178;15.432;2023-06-05T14:45:15;0.50;;;0.50;;
11445;SDS011;5779;64.178;15.432;2023-06-05T14:48:02;0.33;;;0.33;;
11445;SDS011;5779;64.178;15.432;2023-06-05T14:50:49;1.00;;;0.73;;
11445;SDS011;5779;64.178;15.432;2023-06-05T14:53:38;0.60;;;0.60;;
11445;SDS011;5779;64.178;15.432;2023-06-05T14:56:25;0.33;;;0.33;;
11445;SDS011;5779;64.178;15.432;2023-06-05T14:59:12;0.40;;;0.40;;
11445;SDS011;5779;64.178;15.432;2023-06-05T15:02:00;1.73;;;0.90;;
11445;SDS011;5779;64.178;15.432;2023-06-05T15:04:47;0.70;;;0.70;;
11445;SDS011;5779;64.178;15.432;2023-06-05T15:07:35;0.40;;;0.40;;
11445;SDS011;5779;64.178;15.432;2023-06-05T15:10:23;0.40;;;0.40;;
11445;SDS011;5779;64.178;15.432;2023-06-05T15:13:11;0.50;;;0.50;;
11445;SDS011;5779;64.178;15.432;2023-06-05T15:15:58;3.07;;;0.70;;
11445;SDS011;5779;64.178;15.432;2023-06-05T15:18:45;0.57;;;0.57;;
11445;SDS011;5779;64.178;15.432;2023-06-05T15:21:33;0.50;;;0.50;;
11445;SDS011;5779;64.178;15.432;2023-06-05T15:24:21;0.53;;;0.50;;
11445;SDS011;5779;64.178;15.432;2023-06-05T15:27:09;0.50;;;0.50;;
11445;SDS011;5779;64.178;15.432;2023-06-05T15:29:56;0.30;;;0.30;;
11445;SDS011;5779;64.178;15.432;2023-06-05T15:32:42;0.30;;;0.30;;
11445;SDS011;5779;64.178;15.432;2023-06-05T15:35:29;0.40;;;0.40;;
11445;SDS011;5779;64.178;15.432;2023-06-05T15:38:16;0.40;;;0.40;;
11445;SDS011;5779;64.178;15.432;2023-06-05T15:41:03;0.30;;;0.30;;
11445;SDS011;5779;64.178;15.432;2023-06-05T15:43:51;1.17;;;0.70;;
11445;SDS011;5779;64.178;15.432;2023-06-05T15:46:38;1.70;;;0.70;;
11445;SDS011;5779;64.178;15.432;2023-06-05T15:49:25;0.40;;;0.40;;
11445;SDS011;5779;64.178;15.432;2023-06-05T15:52:12;2.63;;;0.63;;
11445;SDS011;5779;64.178;15.432;2023-06-05T15:54:59;0.37;;;0.37;;
11445;SDS011;5779;64.178;15.432;2023-06-05T15:57:46;0.20;;;0.20;;
11445;SDS011;5779;64.178;15.432;2023-06-05T16:00:35;0.40;;;0.40;;
11445;SDS011;5779;64.178;15.432;2023-06-05T16:03:22;0.97;;;0.60;;
11445;SDS011;5779;64.178;15.432;2023-06-05T16:06:08;4.30;;;0.83;;
11445;SDS011;5779;64.178;15.432;2023-06-05T16:08:55;1.20;;;0.53;;
11445;SDS011;5779;64.178;15.432;2023-06-05T16:11:43;0.50;;;0.50;;
11445;SDS011;5779;64.178;15.432;2023-06-05T16:14:30;0.30;;;0.30;;
11445;SDS011;5779;64.178;15.432;2023-06-05T16:17:19;1.90;;;0.87;;
11445;SDS011;5779;64.178;15.432;2023-06-05T16:20:06;1.47;;;0.90;;
11445;SDS011;5779;64.178;15.432;2023-06-05T16:22:53;2.90;;;0.63;;
11445;SDS011;5779;64.178;15.432;2023-06-05T16:25:40;0.20;;;0.20;;
11445;SDS011;5779;64.178;15.432;2023-06-05T16:28:27;2.37;;;0.57;;
11445;SDS011;5779;64.178;15.432;2023-06-05T16:31:14;0.60;;;0.60;;
11445;SDS011;5779;64.178;15.432;2023-06-05T16:34:10;0.77;;;0.60;;
11445;SDS011;5779;64.178;15.432;2023-06-05T16:36:57;1.97;;;0.63;;
11445;SDS011;5779;64.178;15.432;2023-06-05T16:39:44;0.47;;;0.43;;
11445;SDS011;5779;64.178;15.432;2023-06-05T16:42:33;0.43;;;0.30;;
11445;SDS011;5779;64.178;15.432;2023-06-05T16:45:20;0.30;;;0.30;;
11445;SDS011;5779;64.178;15.432;2023-06-05T16:48:07;4.60;;;0.60;;
11445;SDS011;5779;64.178;15.432;2023-06-05T16:50:56;0.73;;;0.53;;
11445;SDS011;5779;64.178;15.432;2023-06-05T16:53:43;0.40;;;0.40;;
11445;SDS011;5779;64.178;15.432;2023-06-05T16:56:31;0.40;;;0.40;;
11445;SDS011;5779;64.178;15.432;2023-06-05T16:59:17;0.40;;;0.40;;
11445;SDS011;5779;64.178;15.432;2023-06-05T17:02:05;0.47;;;0.47;;
11445;SDS011;5779;64.178;15.432;2023-06-05T17:04:53;0.40;;;0.40;;